createdAt,value
2018-11-12T00:02:19.361Z,6.73
2018-11-12T00:04:47.627Z,7.03
2018-11-12T00:07:15.881Z,6.87
2018-11-12T00:09:44.132Z,6.50
2018-11-12T00:12:12.379Z,7.87
2018-11-12T00:14:40.620Z,7.33
2018-11-12T00:17:08.859Z,7.37
2018-11-12T00:19:37.096Z,7.00
2018-11-12T00:22:05.470Z,7.23
2018-11-12T00:24:33.601Z,6.77
2018-11-12T00:27:02.235Z,5.97
2018-11-12T00:29:30.461Z,5.70
2018-11-12T00:31:58.724Z,6.73
2018-11-12T00:34:26.933Z,6.10
2018-11-12T00:36:55.173Z,6.13
2018-11-12T00:39:23.421Z,5.67
2018-11-12T00:41:51.690Z,6.00
2018-11-12T00:44:19.917Z,7.00
2018-11-12T00:46:48.189Z,6.03
2018-11-12T00:49:16.469Z,5.73
2018-11-12T00:51:44.750Z,5.73
2018-11-12T00:54:13.008Z,6.37
2018-11-12T00:56:41.229Z,6.63
2018-11-12T00:59:09.449Z,6.37
2018-11-12T01:01:37.664Z,6.63
2018-11-12T01:04:06.179Z,7.40
2018-11-12T01:06:34.591Z,7.50
2018-11-12T01:09:03.068Z,6.47
2018-11-12T01:11:31.302Z,7.93
2018-11-12T01:13:59.593Z,7.65
2018-11-12T01:16:27.830Z,7.63
2018-11-12T01:18:56.076Z,8.77
2018-11-12T01:21:24.324Z,8.90
2018-11-12T01:23:52.600Z,8.77
2018-11-12T01:26:20.840Z,9.13
2018-11-12T01:28:49.092Z,8.57
2018-11-12T01:31:17.353Z,9.60
2018-11-12T01:33:45.659Z,9.53
2018-11-12T01:36:13.916Z,10.20
2018-11-12T01:38:42.125Z,8.40
2018-11-12T01:41:10.389Z,9.20
2018-11-12T01:43:38.634Z,9.27
2018-11-12T01:46:06.887Z,9.70
2018-11-12T01:48:35.163Z,10.03
2018-11-12T01:51:03.391Z,10.13
2018-11-12T01:53:31.593Z,11.10
2018-11-12T01:55:59.860Z,11.77
2018-11-12T01:58:28.147Z,10.68
2018-11-12T02:00:56.399Z,11.83
2018-11-12T02:03:24.743Z,12.43
2018-11-12T02:05:52.981Z,10.83
2018-11-12T02:08:21.976Z,10.73
2018-11-12T02:10:50.212Z,11.37
2018-11-12T02:13:18.447Z,10.43
2018-11-12T02:15:46.703Z,10.70
2018-11-12T02:18:14.924Z,11.70
2018-11-12T02:20:43.165Z,11.10
2018-11-12T02:23:11.415Z,11.40
2018-11-12T02:25:39.648Z,11.17
2018-11-12T02:28:07.916Z,11.60
2018-11-12T02:30:41.519Z,11.50
2018-11-12T02:33:09.770Z,11.17
2018-11-12T02:35:38.004Z,11.63
2018-11-12T02:38:06.336Z,10.93
2018-11-12T02:40:34.588Z,11.63
2018-11-12T02:43:02.872Z,12.13
2018-11-12T02:45:31.109Z,12.17
2018-11-12T02:47:59.407Z,11.67
2018-11-12T02:50:28.604Z,12.77
2018-11-12T02:52:56.848Z,11.10
2018-11-12T02:55:25.083Z,11.83
2018-11-12T02:57:53.349Z,11.03
2018-11-12T03:00:22.832Z,11.93
2018-11-12T03:02:51.127Z,11.40
2018-11-12T03:05:19.379Z,12.30
2018-11-12T03:07:47.776Z,12.03
2018-11-12T03:10:18.119Z,10.47
2018-11-12T03:12:46.328Z,10.57
2018-11-12T03:15:16.194Z,11.87
2018-11-12T03:17:45.121Z,11.07
2018-11-12T03:20:16.591Z,9.40
2018-11-12T03:22:44.815Z,10.20
2018-11-12T03:25:14.112Z,10.90
2018-11-12T03:27:43.118Z,12.17
2018-11-12T03:30:14.039Z,10.60
2018-11-12T03:32:42.752Z,11.47
2018-11-12T03:35:11.947Z,9.47
2018-11-12T03:37:41.085Z,10.90
2018-11-12T03:40:12.432Z,10.27
2018-11-12T03:42:40.733Z,12.10
2018-11-12T03:45:12.705Z,11.20
2018-11-12T03:47:40.964Z,10.43
2018-11-12T03:50:12.548Z,9.50
2018-11-12T03:52:41.235Z,9.70
2018-11-12T03:55:10.839Z,9.70
2018-11-12T03:57:39.065Z,9.07
2018-11-12T04:00:13.231Z,8.23
2018-11-12T04:02:41.732Z,9.07
2018-11-12T04:05:10.363Z,9.07
2018-11-12T04:07:39.327Z,8.80
2018-11-12T04:10:10.358Z,8.37
2018-11-12T04:12:38.718Z,8.83
2018-11-12T04:15:09.186Z,7.83
2018-11-12T04:17:37.484Z,9.17
2018-11-12T04:20:06.488Z,8.70
2018-11-12T04:22:34.729Z,8.40
2018-11-12T04:25:02.967Z,8.10
2018-11-12T04:27:31.195Z,7.93
2018-11-12T04:29:59.424Z,8.23
2018-11-12T04:32:27.688Z,9.17
2018-11-12T04:34:55.937Z,8.33
2018-11-12T04:37:24.191Z,7.97
2018-11-12T04:39:52.416Z,7.87
2018-11-12T04:42:20.632Z,7.57
2018-11-12T04:44:48.855Z,7.37
2018-11-12T04:47:17.088Z,7.87
2018-11-12T04:49:45.368Z,7.70
2018-11-12T04:52:13.594Z,7.23
2018-11-12T04:54:41.821Z,8.07
2018-11-12T04:57:10.251Z,7.83
2018-11-12T04:59:38.548Z,8.18
2018-11-12T05:02:06.901Z,7.87
2018-11-12T05:04:35.062Z,8.90
2018-11-12T05:07:04.307Z,8.77
2018-11-12T05:09:32.605Z,8.83
2018-11-12T05:12:00.836Z,8.77
2018-11-12T05:14:29.176Z,8.73
2018-11-12T05:16:57.425Z,8.40
2018-11-12T05:19:25.660Z,9.83
2018-11-12T05:21:54.082Z,9.77
2018-11-12T05:24:22.532Z,9.40
2018-11-12T05:26:50.796Z,9.13
2018-11-12T05:29:19.017Z,9.17
2018-11-12T05:31:47.278Z,9.50
2018-11-12T05:34:15.540Z,8.83
2018-11-12T05:36:43.776Z,9.37
2018-11-12T05:39:13.235Z,9.13
2018-11-12T05:41:41.472Z,10.00
2018-11-12T05:44:10.105Z,9.80
2018-11-12T05:46:38.501Z,10.87
2018-11-12T05:49:06.727Z,9.43
2018-11-12T05:51:34.974Z,10.67
2018-11-12T05:54:03.347Z,10.23
2018-11-12T05:56:32.012Z,10.13
2018-11-12T05:59:00.286Z,10.00
2018-11-12T06:01:28.836Z,9.50
2018-11-12T06:03:57.081Z,9.10
2018-11-12T06:06:25.348Z,10.50
2018-11-12T06:08:54.567Z,9.90
2018-11-12T06:11:22.836Z,10.60
2018-11-12T06:13:51.049Z,10.27
2018-11-12T06:16:19.296Z,11.47
2018-11-12T06:18:47.528Z,10.90
2018-11-12T06:21:15.861Z,11.07
2018-11-12T06:23:44.136Z,10.37
2018-11-12T06:26:12.645Z,10.67
2018-11-12T06:28:40.881Z,10.87
2018-11-12T06:31:09.195Z,11.07
2018-11-12T06:33:37.388Z,11.80
2018-11-12T06:36:05.920Z,11.43
2018-11-12T06:38:34.212Z,10.43
2018-11-12T06:41:02.473Z,12.43
2018-11-12T06:43:30.717Z,12.07
2018-11-12T06:45:59.095Z,11.43
2018-11-12T06:48:27.388Z,11.10
2018-11-12T06:50:55.635Z,11.30
2018-11-12T06:53:23.917Z,12.13
2018-11-12T06:55:52.172Z,11.47
2018-11-12T06:58:20.527Z,11.50
2018-11-12T07:00:48.810Z,12.00
2018-11-12T07:03:17.601Z,11.63
2018-11-12T07:05:45.813Z,11.43
2018-11-12T07:08:14.036Z,12.07
2018-11-12T07:10:42.271Z,10.77
2018-11-12T07:13:10.547Z,10.33
2018-11-12T07:15:38.732Z,9.80
2018-11-12T07:18:07.055Z,8.97
2018-11-12T07:20:35.804Z,9.63
2018-11-12T07:23:04.044Z,9.07
2018-11-12T07:25:32.311Z,8.80
2018-11-12T07:28:00.545Z,8.70
2018-11-12T07:30:29.433Z,8.57
2018-11-12T07:32:58.589Z,8.70
2018-11-12T07:35:26.951Z,9.03
2018-11-12T07:37:55.907Z,8.70
2018-11-12T07:40:24.478Z,8.53
2018-11-12T07:42:53.361Z,8.50
2018-11-12T07:45:22.896Z,9.00
2018-11-12T07:47:51.991Z,8.13
2018-11-12T07:50:21.491Z,7.87
2018-11-12T07:52:49.732Z,8.73
2018-11-12T07:55:19.833Z,7.97
2018-11-12T07:57:49.245Z,7.40
2018-11-12T08:00:19.472Z,7.00
2018-11-12T08:02:48.802Z,7.50
2018-11-12T08:05:17.425Z,7.57
2018-11-12T08:07:46.071Z,6.33
2018-11-12T08:10:16.408Z,5.83
2018-11-12T08:12:45.208Z,5.93
2018-11-12T08:15:14.617Z,6.13
2018-11-12T08:17:43.242Z,6.07
2018-11-12T08:20:14.371Z,6.70
2018-11-12T08:22:43.424Z,6.50
2018-11-12T08:25:12.848Z,5.40
2018-11-12T08:27:41.377Z,6.43
2018-11-12T08:30:11.820Z,5.50
2018-11-12T08:32:40.084Z,5.63
2018-11-12T08:35:08.301Z,5.43
2018-11-12T08:37:36.540Z,4.90
2018-11-12T08:40:06.717Z,5.67
2018-11-12T08:42:34.864Z,4.87
2018-11-12T08:45:03.565Z,5.03
2018-11-12T08:47:31.809Z,5.57
2018-11-12T08:50:00.199Z,4.92
2018-11-12T08:52:28.394Z,5.47
2018-11-12T08:54:56.811Z,5.23
2018-11-12T08:57:24.881Z,5.03
2018-11-12T08:59:53.116Z,6.33
2018-11-12T09:02:21.388Z,4.90
2018-11-12T09:04:49.635Z,5.00
2018-11-12T09:07:18.309Z,5.00
2018-11-12T09:09:46.154Z,5.27
2018-11-12T09:12:14.432Z,5.00
2018-11-12T09:14:42.713Z,4.90
2018-11-12T09:17:10.958Z,4.57
2018-11-12T09:19:39.201Z,4.83
2018-11-12T09:22:07.504Z,4.42
2018-11-12T09:24:35.736Z,4.03
2018-11-12T09:27:03.993Z,3.92
2018-11-12T09:29:32.315Z,4.00
2018-11-12T09:32:00.487Z,4.00
2018-11-12T09:34:28.760Z,3.95
2018-11-12T09:36:57.089Z,4.20
2018-11-12T09:39:25.348Z,3.70
2018-11-12T09:41:53.592Z,3.62
2018-11-12T09:44:21.873Z,4.00
2018-11-12T09:46:50.048Z,4.08
2018-11-12T09:49:18.284Z,3.37
2018-11-12T09:51:46.508Z,3.92
2018-11-12T09:54:14.888Z,3.42
2018-11-12T09:56:43.020Z,3.33
2018-11-12T09:59:11.252Z,3.40
2018-11-12T10:01:40.141Z,3.55
2018-11-12T10:04:08.809Z,4.53
2018-11-12T10:06:37.339Z,4.20
2018-11-12T10:09:08.803Z,4.83
2018-11-12T10:11:37.300Z,4.72
2018-11-12T10:14:05.657Z,4.55
2018-11-12T10:16:34.590Z,4.62
2018-11-12T10:19:00.392Z,4.35
2018-11-12T10:21:28.676Z,4.62
2018-11-12T10:23:56.921Z,4.55
2018-11-12T10:26:25.235Z,3.98
2018-11-12T10:28:53.560Z,4.30
2018-11-12T10:31:21.770Z,4.30
2018-11-12T10:33:50.211Z,3.40
2018-11-12T10:36:18.464Z,4.08
2018-11-12T10:38:46.712Z,4.20
2018-11-12T10:41:14.993Z,4.10
2018-11-12T10:43:43.210Z,3.62
2018-11-12T10:46:11.440Z,3.60
2018-11-12T10:48:39.707Z,4.20
2018-11-12T10:51:07.935Z,3.98
2018-11-12T10:53:36.203Z,3.83
2018-11-12T10:56:04.701Z,4.05
2018-11-12T10:58:32.998Z,4.37
2018-11-12T11:01:06.627Z,3.90
2018-11-12T11:03:40.414Z,4.87
2018-11-12T11:06:08.668Z,4.10
2018-11-12T11:08:36.875Z,3.60
2018-11-12T11:11:05.144Z,3.77
2018-11-12T11:13:33.382Z,3.95
2018-11-12T11:16:01.639Z,4.03
2018-11-12T11:18:29.892Z,4.53
2018-11-12T11:20:58.114Z,4.35
2018-11-12T11:23:26.373Z,4.50
2018-11-12T11:25:54.616Z,3.65
2018-11-12T11:28:22.867Z,3.70
2018-11-12T11:30:51.128Z,4.07
2018-11-12T11:33:19.345Z,4.40
2018-11-12T11:35:47.963Z,4.60
2018-11-12T11:38:16.225Z,4.70
2018-11-12T11:40:44.683Z,4.72
2018-11-12T11:43:19.324Z,5.47
2018-11-12T11:45:48.139Z,6.00
2018-11-12T11:48:16.498Z,4.92
2018-11-12T11:50:44.692Z,6.37
2018-11-12T11:53:12.873Z,5.77
2018-11-12T11:55:41.111Z,5.67
2018-11-12T11:58:09.424Z,6.00
2018-11-12T12:00:37.662Z,7.62
2018-11-12T12:03:06.389Z,8.98
2018-11-12T12:05:34.588Z,8.70
2018-11-12T12:08:02.855Z,10.10
2018-11-12T12:10:31.139Z,11.00
2018-11-12T12:12:59.408Z,12.10
2018-11-12T12:15:27.648Z,9.83
2018-11-12T12:17:55.916Z,10.37
2018-11-12T12:20:25.388Z,9.20
2018-11-12T12:22:54.139Z,9.37
2018-11-12T12:25:22.421Z,10.53
2018-11-12T12:27:50.839Z,11.15
2018-11-12T12:30:20.497Z,11.03
2018-11-12T12:32:49.693Z,12.63
2018-11-12T12:35:17.932Z,11.97
2018-11-12T12:37:46.685Z,11.05
2018-11-12T12:40:16.409Z,13.37
2018-11-12T12:42:44.660Z,14.17
2018-11-12T12:45:15.183Z,13.40
2018-11-12T12:47:43.700Z,14.30
2018-11-12T12:50:12.883Z,14.73
2018-11-12T12:52:41.120Z,15.72
2018-11-12T12:55:10.258Z,14.93
2018-11-12T12:57:38.537Z,14.67
2018-11-12T13:00:11.582Z,14.87
2018-11-12T13:02:40.596Z,15.10
2018-11-12T13:05:08.911Z,15.60
2018-11-12T13:07:37.485Z,15.80
2018-11-12T13:10:07.251Z,14.77
2018-11-12T13:12:36.441Z,13.77
2018-11-12T13:15:06.482Z,14.73
2018-11-12T13:17:34.736Z,12.47
2018-11-12T13:20:02.982Z,13.47
2018-11-12T13:22:31.213Z,12.47
2018-11-12T13:24:59.525Z,11.77
2018-11-12T13:27:27.861Z,13.00
2018-11-12T13:29:56.195Z,12.40
2018-11-12T13:32:24.399Z,12.03
2018-11-12T13:34:52.656Z,12.73
2018-11-12T13:37:20.935Z,13.28
2018-11-12T13:39:49.190Z,13.20
2018-11-12T13:42:17.456Z,12.00
2018-11-12T13:44:45.697Z,12.40
2018-11-12T13:47:21.197Z,13.07
2018-11-12T13:49:49.474Z,11.97
2018-11-12T13:52:17.712Z,14.17
2018-11-12T13:54:45.984Z,13.53
2018-11-12T13:57:14.256Z,12.43
2018-11-12T13:59:42.512Z,13.03
2018-11-12T14:02:10.749Z,13.43
2018-11-12T14:04:39.248Z,13.57
2018-11-12T14:07:07.514Z,13.20
2018-11-12T14:09:35.777Z,13.53
2018-11-12T14:12:04.045Z,14.43
2018-11-12T14:14:32.292Z,15.08
2018-11-12T14:17:00.524Z,15.08
2018-11-12T14:19:28.799Z,14.95
2018-11-12T14:21:57.080Z,15.55
2018-11-12T14:24:25.345Z,16.17
2018-11-12T14:26:53.615Z,15.68
2018-11-12T14:29:21.868Z,16.85
2018-11-12T14:31:50.113Z,15.83
2018-11-12T14:34:18.392Z,19.07
2018-11-12T14:36:46.651Z,17.40
2018-11-12T14:39:14.929Z,16.27
2018-11-12T14:41:43.193Z,16.15
2018-11-12T14:44:11.448Z,13.70
2018-11-12T14:46:39.743Z,16.37
2018-11-12T14:49:08.033Z,13.98
2018-11-12T14:51:36.309Z,13.78
2018-11-12T14:54:04.707Z,14.30
2018-11-12T14:56:33.011Z,14.87
2018-11-12T14:59:01.805Z,15.13
2018-11-12T15:01:30.061Z,14.83
2018-11-12T15:03:58.353Z,14.93
2018-11-12T15:06:26.618Z,16.30
2018-11-12T15:08:54.935Z,14.93
2018-11-12T15:11:23.224Z,16.03
2018-11-12T15:13:51.453Z,16.10
2018-11-12T15:16:20.631Z,13.90
2018-11-12T15:18:48.924Z,17.40
2018-11-12T15:21:17.250Z,18.13
2018-11-12T15:23:45.741Z,17.07
2018-11-12T15:26:14.647Z,15.40
2018-11-12T15:28:42.880Z,19.60
2018-11-12T15:31:11.154Z,18.30
2018-11-12T15:33:39.384Z,17.83
2018-11-12T15:36:07.659Z,16.37
2018-11-12T15:38:35.905Z,19.03
2018-11-12T15:41:04.197Z,16.80
2018-11-12T15:43:32.453Z,15.23
2018-11-12T15:46:00.738Z,17.40
2018-11-12T15:48:28.981Z,18.90
2018-11-12T15:50:57.435Z,18.13
2018-11-12T15:53:25.646Z,19.67
2018-11-12T15:55:53.984Z,18.40
2018-11-12T15:58:22.276Z,16.90
2018-11-12T16:00:50.569Z,16.83
2018-11-12T16:03:18.824Z,15.83
2018-11-12T16:05:47.097Z,16.30
2018-11-12T16:08:15.379Z,16.50
2018-11-12T16:10:43.653Z,17.33
2018-11-12T16:13:11.933Z,16.13
2018-11-12T16:15:40.213Z,16.25
2018-11-12T16:18:08.508Z,14.50
2018-11-12T16:20:36.822Z,17.10
2018-11-12T16:23:05.112Z,15.87
2018-11-12T16:25:33.478Z,16.70
2018-11-12T16:28:01.737Z,17.23
2018-11-12T16:30:30.049Z,17.40
2018-11-12T16:32:58.378Z,17.47
2018-11-12T16:35:26.665Z,18.27
2018-11-12T16:37:55.659Z,15.33
2018-11-12T16:40:24.071Z,16.57
2018-11-12T16:42:52.316Z,15.73
2018-11-12T16:45:20.572Z,16.00
2018-11-12T16:47:49.076Z,17.57
2018-11-12T16:50:17.793Z,16.32
2018-11-12T16:52:46.860Z,18.87
2018-11-12T16:55:19.141Z,17.03
2018-11-12T16:57:47.622Z,15.67
2018-11-12T17:00:16.980Z,18.35
2018-11-12T17:02:45.712Z,18.57
2018-11-12T17:05:15.437Z,19.77
2018-11-12T17:07:43.721Z,19.67
2018-11-12T17:10:13.543Z,21.85
2018-11-12T17:12:42.753Z,23.07
2018-11-12T17:15:11.859Z,21.67
2018-11-12T17:17:40.417Z,17.90
2018-11-12T17:20:09.427Z,18.77
2018-11-12T17:22:37.943Z,16.93
2018-11-12T17:25:07.531Z,18.27
2018-11-12T17:27:35.828Z,16.33
2018-11-12T17:30:04.412Z,15.27
2018-11-12T17:32:32.925Z,16.03
2018-11-12T17:35:01.231Z,15.83
2018-11-12T17:37:29.577Z,13.63
2018-11-12T17:39:57.990Z,15.83
2018-11-12T17:42:26.316Z,15.90
2018-11-12T17:44:54.597Z,15.20
2018-11-12T17:47:22.914Z,14.83
2018-11-12T17:49:51.244Z,16.10
2018-11-12T17:52:19.761Z,14.73
2018-11-12T17:54:48.080Z,15.03
2018-11-12T17:57:16.396Z,14.63
2018-11-12T17:59:44.683Z,15.60
2018-11-12T18:02:13.024Z,15.98
2018-11-12T18:04:41.311Z,14.47
2018-11-12T18:07:09.755Z,16.12
2018-11-12T18:09:38.011Z,15.83
2018-11-12T18:12:06.836Z,17.63
2018-11-12T18:14:35.256Z,17.97
2018-11-12T18:17:03.657Z,17.20
2018-11-12T18:19:32.039Z,18.35
2018-11-12T18:22:01.266Z,17.67
2018-11-12T18:24:29.613Z,16.70
2018-11-12T18:26:57.952Z,17.73
2018-11-12T18:29:26.250Z,16.77
2018-11-12T18:31:55.636Z,16.27
2018-11-12T18:34:23.732Z,16.67
2018-11-12T18:36:52.408Z,16.63
2018-11-12T18:39:20.784Z,17.43
2018-11-12T18:41:49.161Z,16.90
2018-11-12T18:44:17.675Z,18.73
2018-11-12T18:46:46.097Z,17.03
2018-11-12T18:49:14.963Z,17.47
2018-11-12T18:51:43.455Z,19.80
2018-11-12T18:54:11.855Z,17.27
2018-11-12T18:56:40.370Z,18.63
2018-11-12T18:59:09.469Z,21.02
2018-11-12T19:01:38.807Z,19.83
2018-11-12T19:04:07.183Z,21.87
2018-11-12T19:06:36.094Z,19.77
2018-11-12T19:09:05.833Z,20.23
2018-11-12T19:11:34.223Z,19.80
2018-11-12T19:14:02.581Z,19.23
2018-11-12T19:16:31.674Z,19.47
2018-11-12T19:19:00.521Z,19.23
2018-11-12T19:21:29.103Z,19.67
2018-11-12T19:23:57.474Z,20.20
2018-11-12T19:26:25.912Z,20.87
2018-11-12T19:28:54.922Z,22.00
2018-11-12T19:31:24.294Z,21.17
2018-11-12T19:33:52.639Z,22.17
2018-11-12T19:36:20.977Z,24.23
2018-11-12T19:38:49.400Z,22.30
2018-11-12T19:41:18.597Z,24.60
2018-11-12T19:43:46.962Z,21.80
2018-11-12T19:46:15.404Z,22.55
2018-11-12T19:48:45.186Z,22.73
2018-11-12T19:51:13.565Z,21.27
2018-11-12T19:53:42.244Z,20.93
2018-11-12T19:56:10.656Z,23.77
2018-11-12T19:58:39.152Z,24.47
2018-11-12T20:01:07.938Z,24.47
2018-11-12T20:03:36.274Z,25.10
2018-11-12T20:06:05.232Z,25.70
2018-11-12T20:08:34.881Z,25.10
2018-11-12T20:11:03.691Z,24.83
2018-11-12T20:13:32.183Z,24.73
2018-11-12T20:16:00.567Z,24.75
2018-11-12T20:18:29.196Z,25.80
2018-11-12T20:20:57.506Z,28.10
2018-11-12T20:23:26.505Z,25.87
2018-11-12T20:25:56.077Z,24.77
2018-11-12T20:28:24.424Z,27.13
2018-11-12T20:30:53.462Z,27.87
2018-11-12T20:33:21.844Z,27.33
2018-11-12T20:35:51.032Z,27.37
2018-11-12T20:38:20.143Z,27.00
2018-11-12T20:40:49.060Z,24.97
2018-11-12T20:43:18.419Z,25.97
2018-11-12T20:45:47.635Z,27.63
2018-11-12T20:48:16.136Z,28.37
2018-11-12T20:50:44.428Z,27.83
2018-11-12T20:53:13.376Z,27.27
2018-11-12T20:55:42.021Z,27.40
2018-11-12T20:58:10.460Z,27.33
2018-11-12T21:00:38.808Z,26.03
2018-11-12T21:03:07.188Z,27.00
2018-11-12T21:05:42.258Z,27.33
2018-11-12T21:08:11.230Z,28.67
2018-11-12T21:10:40.217Z,26.30
2018-11-12T21:13:08.607Z,25.63
2018-11-12T21:15:36.946Z,26.73
2018-11-12T21:18:05.644Z,26.83
2018-11-12T21:20:34.129Z,27.80
2018-11-12T21:23:02.513Z,25.80
2018-11-12T21:25:31.155Z,27.47
2018-11-12T21:27:59.646Z,27.67
2018-11-12T21:30:29.483Z,29.30
2018-11-12T21:32:57.910Z,28.33
2018-11-12T21:35:26.960Z,28.53
2018-11-12T21:37:56.176Z,27.43
2018-11-12T21:40:26.368Z,26.03
2018-11-12T21:42:54.833Z,25.83
2018-11-12T21:45:24.683Z,24.63
2018-11-12T21:47:53.171Z,24.90
2018-11-12T21:50:22.205Z,24.20
2018-11-12T21:52:50.751Z,25.37
2018-11-12T21:55:19.204Z,23.80
2018-11-12T21:57:47.523Z,26.10
2018-11-12T22:00:23.635Z,22.87
2018-11-12T22:03:09.306Z,20.13
2018-11-12T22:05:44.261Z,23.90
2018-11-12T22:08:12.597Z,20.17
2018-11-12T22:10:40.904Z,20.07
2018-11-12T22:13:09.223Z,20.03
2018-11-12T22:15:37.611Z,19.30
2018-11-12T22:18:07.072Z,18.83
2018-11-12T22:20:35.338Z,18.40
2018-11-12T22:23:03.613Z,18.20
2018-11-12T22:25:32.053Z,18.40
2018-11-12T22:28:00.362Z,19.40
2018-11-12T22:30:28.741Z,20.40
2018-11-12T22:32:57.324Z,18.80
2018-11-12T22:35:25.648Z,20.67
2018-11-12T22:37:53.928Z,20.30
2018-11-12T22:40:23.184Z,20.47
2018-11-12T22:42:52.311Z,20.90
2018-11-12T22:45:22.347Z,20.80
2018-11-12T22:47:51.020Z,21.53
2018-11-12T22:50:19.341Z,20.10
2018-11-12T22:52:47.618Z,21.00
2018-11-12T22:55:17.005Z,20.50
2018-11-12T22:57:45.273Z,21.87
2018-11-12T23:00:20.736Z,20.33
2018-11-12T23:02:49.548Z,20.13
2018-11-12T23:05:18.345Z,19.27
2018-11-12T23:07:47.357Z,21.37
2018-11-12T23:10:16.111Z,20.10
2018-11-12T23:12:44.484Z,18.77
2018-11-12T23:15:13.195Z,18.67
2018-11-12T23:17:41.509Z,19.50
2018-11-12T23:20:15.131Z,20.77
2018-11-12T23:22:44.017Z,20.17
2018-11-12T23:25:12.265Z,19.03
2018-11-12T23:27:41.196Z,20.30
2018-11-12T23:30:11.453Z,17.90
2018-11-12T23:32:39.788Z,19.20
2018-11-12T23:35:09.941Z,17.13
2018-11-12T23:37:38.340Z,19.33
2018-11-12T23:40:07.056Z,19.73
2018-11-12T23:42:35.364Z,18.73
2018-11-12T23:45:03.696Z,18.97
2018-11-12T23:47:32.116Z,18.93
2018-11-12T23:50:00.380Z,18.97
2018-11-12T23:52:28.667Z,16.83
2018-11-12T23:54:56.884Z,19.63
2018-11-12T23:57:25.248Z,20.87
2018-11-12T23:59:53.651Z,18.43
